Time;durP1;ratioP1;P1;durP2;ratioP2;P2;SDS_P1;SDS_P2;PMS_P1;PMS_P2;Temp;Humidity;BMP_temperature;BMP_pressure;BME280_temperature;BME280_humidity;BME280_pressure;Samples;Min_cycle;Max_cycle;Signal;HPM_P1;HPM_P2
2023/09/23 00:03:17;;;;;;;4.60;2.30;;;;;12.20;95733.00;;;;8343235;28;20315;-67
2023/09/23 00:07:22;;;;;;;6.53;2.20;;;;;12.10;95755.00;;;;8346081;28;20254;-67
2023/09/23 00:11:25;;;;;;;4.10;2.22;;;;;12.00;95752.00;;;;8351527;28;20372;-67
2023/09/23 00:15:30;;;;;;;2.75;2.30;;;;;12.00;95755.00;;;;8351624;28;20246;-67
2023/09/23 00:19:35;;;;;;;5.68;2.00;;;;;11.90;95747.00;;;;8351461;28;20199;-67
2023/09/23 00:23:40;;;;;;;3.50;2.28;;;;;12.00;95760.00;;;;8347104;28;20210;-67
2023/09/23 00:27:46;;;;;;;3.58;1.98;;;;;12.00;95751.00;;;;8351694;28;21448;-67
2023/09/23 00:31:49;;;;;;;1.83;1.73;;;;;12.00;95767.00;;;;8343342;28;20597;-67
2023/09/23 00:35:52;;;;;;;2.20;2.00;;;;;11.90;95758.00;;;;8349598;28;20319;-67
2023/09/23 00:39:57;;;;;;;2.95;2.03;;;;;11.90;95750.00;;;;8348941;28;20298;-67
2023/09/23 00:44:01;;;;;;;4.07;2.00;;;;;11.70;95753.00;;;;8350071;28;20275;-67
2023/09/23 00:48:08;;;;;;;3.30;2.03;;;;;11.70;95762.00;;;;8346053;28;20208;-67
2023/09/23 00:52:13;;;;;;;6.00;2.17;;;;;11.60;95762.00;;;;8349171;28;20269;-67
2023/09/23 00:56:25;;;;;;;2.13;1.92;;;;;11.60;95768.00;;;;8348606;28;20209;-67
2023/09/23 01:00:31;;;;;;;2.50;1.98;;;;;11.50;95760.00;;;;8348361;28;20701;-67
2023/09/23 01:04:35;;;;;;;4.35;2.58;;;;;11.40;95762.00;;;;8349776;28;20229;-67
2023/09/23 01:08:42;;;;;;;3.85;2.00;;;;;11.50;95777.00;;;;8344920;28;20249;-67
2023/09/23 01:12:47;;;;;;;11.00;2.28;;;;;11.50;95773.00;;;;8348127;28;20250;-67
2023/09/23 01:16:52;;;;;;;4.18;2.40;;;;;11.60;95781.00;;;;8346560;28;20200;-67
2023/09/23 01:20:59;;;;;;;3.05;2.10;;;;;11.70;95795.00;;;;8346576;28;20890;-67
2023/09/23 01:25:04;;;;;;;4.50;2.42;;;;;11.80;95806.00;;;;8346199;28;20716;-67
2023/09/23 01:29:11;;;;;;;2.85;1.98;;;;;11.80;95807.00;;;;8348644;28;20193;-67
2023/09/23 01:33:15;;;;;;;4.13;2.45;;;;;11.90;95820.00;;;;8342300;28;20228;-68
2023/09/23 01:37:23;;;;;;;3.85;2.17;;;;;11.90;95817.00;;;;8347937;28;20227;-67
2023/09/23 01:41:27;;;;;;;3.45;2.30;;;;;12.00;95826.00;;;;8348613;28;20242;-67
2023/09/23 01:45:32;;;;;;;3.08;2.40;;;;;12.00;95826.00;;;;8347612;28;20287;-67
2023/09/23 01:49:35;;;;;;;2.70;2.22;;;;;12.00;95823.00;;;;8349984;28;20199;-67
2023/09/23 01:53:43;;;;;;;4.38;2.30;;;;;12.10;95835.00;;;;8347766;28;20310;-67
2023/09/23 01:57:49;;;;;;;3.50;2.95;;;;;12.10;95841.00;;;;8344983;28;20676;-67
2023/09/23 02:01:52;;;;;;;3.10;2.30;;;;;12.20;95842.00;;;;8346721;28;20232;-67
2023/09/23 02:05:55;;;;;;;6.13;2.47;;;;;12.20;95856.00;;;;8346566;28;20202;-67
2023/09/23 02:10:03;;;;;;;4.22;2.67;;;;;12.30;95862.00;;;;8348797;28;20200;-67
2023/09/23 02:14:08;;;;;;;4.82;2.60;;;;;12.30;95863.00;;;;8345190;28;20234;-67
2023/09/23 02:18:13;;;;;;;4.38;2.47;;;;;12.40;95861.00;;;;8346749;28;20204;-67
2023/09/23 02:22:17;;;;;;;5.18;2.67;;;;;12.30;95864.00;;;;8340045;28;20210;-67
2023/09/23 02:26:24;;;;;;;5.72;2.58;;;;;12.30;95867.00;;;;8343336;28;20211;-67
2023/09/23 02:30:30;;;;;;;9.55;3.13;;;;;12.10;95871.00;;;;8347002;28;20282;-67
2023/09/23 02:34:36;;;;;;;8.40;3.05;;;;;12.00;95868.00;;;;8345130;28;20228;-67
2023/09/23 02:38:43;;;;;;;3.50;2.60;;;;;11.90;95871.00;;;;8347492;28;20190;-67
2023/09/23 02:42:53;;;;;;;2.78;2.45;;;;;11.80;95874.00;;;;8343590;28;20215;-67
2023/09/23 02:46:59;;;;;;;3.58;2.50;;;;;11.70;95877.00;;;;8344238;28;20207;-67
2023/09/23 02:51:04;;;;;;;7.55;3.10;;;;;11.50;95882.00;;;;8346461;28;20208;-67
2023/09/23 02:55:12;;;;;;;6.60;3.03;;;;;11.30;95883.00;;;;8347065;28;20766;-67
2023/09/23 02:59:21;;;;;;;5.30;2.58;;;;;11.20;95887.00;;;;8347685;28;20731;-67
2023/09/23 03:03:27;;;;;;;4.95;2.95;;;;;11.20;95902.00;;;;8363012;22;20227;-67
2023/09/23 03:07:33;;;;;;;6.55;2.80;;;;;11.10;95903.00;;;;8343859;28;20714;-67
2023/09/23 03:11:47;;;;;;;5.10;3.45;;;;;11.00;95916.00;;;;8347140;28;20736;-67
2023/09/23 03:15:52;;;;;;;6.10;3.15;;;;;10.90;95917.00;;;;8339640;28;20258;-67
2023/09/23 03:20:00;;;;;;;3.58;2.90;;;;;10.80;95908.00;;;;8347176;28;20313;-67
2023/09/23 03:24:06;;;;;;;3.80;2.80;;;;;10.70;95904.00;;;;8345207;28;20691;-67
2023/09/23 03:28:10;;;;;;;6.47;3.28;;;;;10.70;95908.00;;;;8346858;28;20196;-67
2023/09/23 03:32:15;;;;;;;6.32;3.20;;;;;10.70;95907.00;;;;8344614;28;20284;-67
2023/09/23 03:36:20;;;;;;;5.53;2.92;;;;;10.80;95908.00;;;;8344043;28;20857;-67
2023/09/23 03:40:27;;;;;;;6.78;3.53;;;;;10.80;95908.00;;;;8345730;28;20301;-67
2023/09/23 03:44:35;;;;;;;6.95;3.30;;;;;10.80;95913.00;;;;8348426;28;20209;-67
2023/09/23 03:48:43;;;;;;;4.95;2.95;;;;;10.80;95920.00;;;;8353126;28;20250;-67
2023/09/23 03:52:48;;;;;;;4.45;3.25;;;;;10.80;95933.00;;;;8352984;28;20238;-67
2023/09/23 03:56:56;;;;;;;6.57;3.42;;;;;10.90;95933.00;;;;8351562;28;20196;-67
2023/09/23 04:01:03;;;;;;;9.98;4.88;;;;;11.00;95944.00;;;;8349366;28;20225;-67
2023/09/23 04:05:07;;;;;;;11.27;5.05;;;;;11.10;95951.00;;;;8351416;28;20202;-67
2023/09/23 04:09:19;;;;;;;9.45;4.57;;;;;11.20;95952.00;;;;8353767;28;20903;-67
2023/09/23 04:13:22;;;;;;;12.35;5.50;;;;;11.20;95961.00;;;;8351385;28;20303;-67
2023/09/23 04:17:26;;;;;;;17.98;7.28;;;;;11.20;95957.00;;;;8351553;28;20229;-67
2023/09/23 04:21:32;;;;;;;13.73;7.13;;;;;11.40;95973.00;;;;8353203;28;20276;-67
2023/09/23 04:25:36;;;;;;;18.20;8.18;;;;;11.50;95990.00;;;;8350982;28;20207;-67
2023/09/23 04:29:40;;;;;;;14.88;7.15;;;;;11.50;96002.00;;;;8353966;28;20849;-67
2023/09/23 04:33:43;;;;;;;15.38;7.47;;;;;11.50;96007.00;;;;8350560;28;20869;-67
2023/09/23 04:37:47;;;;;;;17.48;7.20;;;;;11.50;96013.00;;;;8351537;28;20293;-67
2023/09/23 04:41:53;;;;;;;16.15;7.43;;;;;11.40;96022.00;;;;8350267;28;20699;-67
2023/09/23 04:45:56;;;;;;;17.83;7.65;;;;;11.30;96024.00;;;;8348351;28;20281;-70
2023/09/23 04:50:00;;;;;;;16.02;6.25;;;;;11.20;96028.00;;;;8349253;28;20207;-69
2023/09/23 04:54:06;;;;;;;13.63;7.35;;;;;11.10;96021.00;;;;8348311;28;20958;-69
2023/09/23 04:58:14;;;;;;;13.23;6.63;;;;;10.90;96031.00;;;;8350562;28;20300;-68
2023/09/23 05:02:20;;;;;;;13.05;6.07;;;;;10.80;96028.00;;;;8342037;28;20232;-67
2023/09/23 05:06:24;;;;;;;13.60;5.78;;;;;10.70;96035.00;;;;8348772;28;20194;-68
2023/09/23 05:10:29;;;;;;;15.20;4.82;;;;;10.60;96034.00;;;;8349335;28;20312;-68
2023/09/23 05:14:37;;;;;;;16.75;4.93;;;;;10.60;96053.00;;;;8348930;28;20231;-68
2023/09/23 05:18:41;;;;;;;13.85;5.75;;;;;10.40;96058.00;;;;8345230;28;20660;-68
2023/09/23 05:22:44;;;;;;;11.32;6.00;;;;;10.30;96068.00;;;;8350597;28;20558;-68
2023/09/23 05:26:49;;;;;;;8.98;4.72;;;;;10.20;96064.00;;;;8349807;28;20720;-67
2023/09/23 05:30:55;;;;;;;12.85;5.18;;;;;10.10;96077.00;;;;8343404;28;20638;-67
2023/09/23 05:35:04;;;;;;;13.13;4.60;;;;;10.00;96072.00;;;;8344732;28;20293;-67
2023/09/23 05:39:13;;;;;;;11.18;4.82;;;;;9.90;96072.00;;;;8348176;28;20201;-68
2023/09/23 05:43:19;;;;;;;10.13;5.10;;;;;9.80;96090.00;;;;8347590;28;20197;-68
2023/09/23 05:47:27;;;;;;;10.38;4.57;;;;;9.80;96091.00;;;;8346241;28;20232;-68
2023/09/23 05:51:32;;;;;;;8.60;4.70;;;;;9.80;96086.00;;;;8348083;28;20213;-67
2023/09/23 05:55:35;;;;;;;8.82;5.05;;;;;9.90;96086.00;;;;8345426;28;20230;-67
2023/09/23 05:59:38;;;;;;;9.40;4.93;;;;;9.90;96091.00;;;;8347637;28;20832;-69
2023/09/23 06:03:43;;;;;;;10.80;5.35;;;;;9.90;96102.00;;;;8347415;28;20235;-68
2023/09/23 06:07:49;;;;;;;9.95;4.43;;;;;10.00;96132.00;;;;8346308;28;20320;-68
2023/09/23 06:11:52;;;;;;;9.20;5.20;;;;;10.00;96136.00;;;;8346287;28;20894;-68
2023/09/23 06:16:00;;;;;;;10.95;5.68;;;;;10.10;96144.00;;;;8346542;28;20220;-68
2023/09/23 06:20:07;;;;;;;9.05;4.60;;;;;10.20;96140.00;;;;8345510;28;20227;-68
2023/09/23 06:24:11;;;;;;;5.18;3.83;;;;;10.40;96148.00;;;;8347298;28;20289;-68
2023/09/23 06:28:17;;;;;;;11.20;4.70;;;;;10.50;96156.00;;;;8346391;28;20197;-67
2023/09/23 06:32:20;;;;;;;8.48;4.30;;;;;10.60;96167.00;;;;8345130;28;20288;-67
2023/09/23 06:36:27;;;;;;;5.95;4.10;;;;;10.60;96171.00;;;;8346051;28;20233;-68
2023/09/23 06:40:31;;;;;;;5.65;3.33;;;;;10.70;96176.00;;;;8347014;28;20227;-68
2023/09/23 06:44:34;;;;;;;7.18;3.58;;;;;10.70;96186.00;;;;8346241;28;20212;-67
2023/09/23 06:48:37;;;;;;;5.60;3.38;;;;;10.80;96185.00;;;;8344970;28;20320;-68
2023/09/23 06:52:42;;;;;;;5.00;3.25;;;;;10.90;96191.00;;;;8341636;28;20197;-68
2023/09/23 06:56:50;;;;;;;4.05;3.03;;;;;11.00;96190.00;;;;8346108;28;20827;-68
2023/09/23 07:00:55;;;;;;;8.90;3.40;;;;;11.10;96193.00;;;;8348253;28;20323;-68
2023/09/23 07:04:58;;;;;;;4.65;3.60;;;;;11.30;96193.00;;;;8345206;28;20710;-67
2023/09/23 07:09:04;;;;;;;4.00;3.25;;;;;11.60;96186.00;;;;8344606;28;20200;-68
2023/09/23 07:13:09;;;;;;;5.93;3.05;;;;;11.70;96189.00;;;;8348364;28;20816;-68
2023/09/23 07:17:15;;;;;;;4.35;3.38;;;;;11.90;96203.00;;;;8346281;28;20878;-68
2023/09/23 07:21:23;;;;;;;6.50;3.75;;;;;12.20;96201.00;;;;8354471;28;20204;-67
2023/09/23 07:25:27;;;;;;;6.22;4.18;;;;;12.60;96210.00;;;;8355962;28;20766;-67
2023/09/23 07:29:32;;;;;;;5.65;3.58;;;;;12.90;96220.00;;;;8356654;28;20231;-67
2023/09/23 07:33:38;;;;;;;4.22;3.30;;;;;13.00;96221.00;;;;8354811;28;20323;-67
2023/09/23 07:37:43;;;;;;;4.28;3.45;;;;;13.10;96235.00;;;;8355093;28;20295;-67
2023/09/23 07:41:51;;;;;;;4.88;3.47;;;;;13.10;96234.00;;;;8357281;28;20284;-67
2023/09/23 07:45:56;;;;;;;5.00;3.47;;;;;13.20;96246.00;;;;8356975;28;20231;-67
2023/09/23 07:49:59;;;;;;;3.35;3.05;;;;;13.60;96252.00;;;;8353375;28;20205;-67
2023/09/23 07:54:05;;;;;;;2.90;2.70;;;;;14.00;96266.00;;;;8355722;28;20208;-66
2023/09/23 07:58:12;;;;;;;3.55;2.60;;;;;14.20;96266.00;;;;8356593;28;20224;-66
2023/09/23 08:02:17;;;;;;;3.50;2.20;;;;;14.30;96275.00;;;;8352147;28;20319;-66
2023/09/23 08:06:21;;;;;;;2.00;1.88;;;;;14.50;96284.00;;;;8351768;28;20197;-66
2023/09/23 08:10:26;;;;;;;2.45;2.25;;;;;14.50;96292.00;;;;8355211;28;20287;-66
2023/09/23 08:14:33;;;;;;;2.78;2.17;;;;;14.60;96298.00;;;;8351585;28;20204;-66
2023/09/23 08:18:38;;;;;;;2.65;1.95;;;;;14.60;96304.00;;;;8357001;28;20200;-66
2023/09/23 08:22:41;;;;;;;2.28;2.00;;;;;14.70;96315.00;;;;8354750;28;20247;-66
2023/09/23 08:26:44;;;;;;;1.83;1.80;;;;;14.70;96320.00;;;;8355930;28;20286;-66
2023/09/23 08:30:50;;;;;;;3.10;2.25;;;;;14.80;96326.00;;;;8351314;28;20197;-66
2023/09/23 08:34:54;;;;;;;2.75;2.00;;;;;15.50;96334.00;;;;8349535;28;20689;-67
2023/09/23 08:39:01;;;;;;;2.30;1.90;;;;;16.00;96346.00;;;;8348077;28;20201;-68
2023/09/23 08:43:08;;;;;;;2.10;2.00;;;;;16.10;96347.00;;;;8348121;28;20296;-68
2023/09/23 08:47:13;;;;;;;1.92;1.80;;;;;16.50;96352.00;;;;8342527;28;20224;-66
2023/09/23 08:51:23;;;;;;;2.72;1.50;;;;;16.90;96352.00;;;;8348206;28;20243;-67
2023/09/23 08:55:28;;;;;;;1.40;1.40;;;;;17.20;96350.00;;;;8346253;28;20228;-67
2023/09/23 08:59:32;;;;;;;1.60;1.50;;;;;17.10;96359.00;;;;8347575;28;20197;-66
2023/09/23 09:03:37;;;;;;;1.30;1.20;;;;;17.20;96378.00;;;;8348817;28;20236;-67
2023/09/23 09:07:42;;;;;;;3.33;1.52;;;;;17.10;96371.00;;;;8349537;28;20270;-67
2023/09/23 09:11:49;;;;;;;1.45;1.38;;;;;17.30;96373.00;;;;8348397;28;20289;-67
2023/09/23 09:15:57;;;;;;;1.40;1.40;;;;;17.50;96372.00;;;;8346691;28;20228;-67
2023/09/23 09:20:11;;;;;;;2.20;1.27;;;;;17.40;96372.00;;;;8342849;28;20350;-67
2023/09/23 09:24:18;;;;;;;1.58;1.48;;;;;17.40;96366.00;;;;8349205;28;20726;-67
2023/09/23 09:28:22;;;;;;;1.10;1.10;;;;;17.60;96366.00;;;;8346534;28;20243;-67
2023/09/23 09:32:30;;;;;;;1.30;1.20;;;;;17.90;96362.00;;;;8348161;28;20852;-66
2023/09/23 09:36:38;;;;;;;6.30;1.77;;;;;18.20;96363.00;;;;8345867;28;20315;-66
2023/09/23 09:40:44;;;;;;;3.30;1.48;;;;;18.90;96366.00;;;;8347064;28;20213;-66
2023/09/23 09:44:53;;;;;;;1.77;1.45;;;;;19.30;96362.00;;;;8348098;28;20208;-66
2023/09/23 09:49:01;;;;;;;3.03;1.40;;;;;19.70;96364.00;;;;8346388;28;20189;-66
2023/09/23 09:53:09;;;;;;;1.85;1.13;;;;;19.80;96361.00;;;;8346880;28;20193;-67
2023/09/23 09:57:13;;;;;;;1.65;1.17;;;;;19.90;96357.00;;;;8346594;28;20970;-67
2023/09/23 10:01:18;;;;;;;1.63;1.33;;;;;19.50;96365.00;;;;8345424;28;20235;-67
2023/09/23 10:05:25;;;;;;;1.40;1.30;;;;;18.90;96370.00;;;;8345380;28;20197;-67
2023/09/23 10:09:33;;;;;;;1.45;1.10;;;;;18.60;96361.00;;;;8348471;28;20610;-67
2023/09/23 10:13:38;;;;;;;2.42;1.23;;;;;19.00;96358.00;;;;8344260;28;20569;-66
2023/09/23 10:17:43;;;;;;;1.42;1.10;;;;;19.10;96367.00;;;;8344905;28;20571;-66
2023/09/23 10:21:47;;;;;;;1.27;1.08;;;;;19.00;96360.00;;;;8347497;28;20694;-66
2023/09/23 10:25:52;;;;;;;2.90;1.10;;;;;18.90;96359.00;;;;8347412;28;20201;-66
2023/09/23 10:29:56;;;;;;;1.50;1.20;;;;;18.80;96363.00;;;;8345527;28;20665;-66
2023/09/23 10:34:06;;;;;;;1.48;1.20;;;;;19.00;96353.00;;;;8344474;28;20200;-66
2023/09/23 10:38:12;;;;;;;2.88;1.00;;;;;19.60;96346.00;;;;8345358;28;20228;-66
2023/09/23 10:42:19;;;;;;;1.33;1.23;;;;;20.20;96351.00;;;;8344464;28;20208;-66
2023/09/23 10:46:24;;;;;;;1.10;1.10;;;;;20.10;96364.00;;;;8345692;28;20208;-65
2023/09/23 10:50:27;;;;;;;2.58;1.60;;;;;20.10;96368.00;;;;8344107;28;20792;-65
2023/09/23 10:54:34;;;;;;;1.85;1.20;;;;;19.60;96381.00;;;;8344214;28;20209;-65
2023/09/23 10:58:43;;;;;;;3.70;1.50;;;;;19.60;96369.00;;;;8345576;28;20889;-65
2023/09/23 11:02:55;;;;;;;3.03;1.23;;;;;19.50;96366.00;;;;8345231;28;20274;-66
2023/09/23 11:06:59;;;;;;;1.55;1.25;;;;;19.90;96379.00;;;;8342518;28;20192;-66
2023/09/23 11:11:03;;;;;;;1.40;1.20;;;;;20.70;96363.00;;;;8343503;28;20239;-66
2023/09/23 11:15:09;;;;;;;1.10;1.00;;;;;21.10;96369.00;;;;8343074;28;20258;-67
2023/09/23 11:19:13;;;;;;;1.00;1.00;;;;;21.20;96380.00;;;;8340674;28;20244;-67
2023/09/23 11:23:18;;;;;;;1.67;1.35;;;;;21.00;96385.00;;;;8344589;28;20287;-67
2023/09/23 11:27:24;;;;;;;2.17;1.25;;;;;21.00;96387.00;;;;8345336;28;20201;-67
2023/09/23 11:31:31;;;;;;;1.33;1.23;;;;;20.80;96390.00;;;;8341268;28;20266;-66
2023/09/23 11:35:36;;;;;;;0.90;0.90;;;;;20.80;96392.00;;;;8342711;28;20192;-63
2023/09/23 11:39:40;;;;;;;2.28;1.20;;;;;21.00;96389.00;;;;8345586;28;20699;-63
2023/09/23 11:43:44;;;;;;;2.13;1.23;;;;;21.30;96388.00;;;;8344208;28;20959;-66
2023/09/23 11:47:51;;;;;;;1.02;1.02;;;;;21.10;96389.00;;;;8346240;28;20196;-63
2023/09/23 11:51:55;;;;;;;1.30;1.20;;;;;20.70;96397.00;;;;8334642;28;20767;-66
2023/09/23 11:55:58;;;;;;;1.40;1.30;;;;;20.20;96402.00;;;;8344652;28;20204;-63
2023/09/23 12:00:01;;;;;;;1.58;1.02;;;;;19.90;96400.00;;;;8343999;28;20193;-63
2023/09/23 12:04:06;;;;;;;5.30;1.58;;;;;19.70;96397.00;;;;8344347;28;20247;-64
2023/09/23 12:08:09;;;;;;;1.25;1.25;;;;;19.30;96392.00;;;;8349782;28;20204;-63
2023/09/23 12:12:14;;;;;;;1.30;1.20;;;;;19.10;96389.00;;;;8349992;28;20719;-64
2023/09/23 12:16:18;;;;;;;1.27;1.10;;;;;19.20;96385.00;;;;8348977;28;20526;-64
2023/09/23 12:20:26;;;;;;;3.42;1.40;;;;;19.20;96389.00;;;;8350757;28;20204;-63
2023/09/23 12:24:32;;;;;;;3.30;1.48;;;;;19.40;96390.00;;;;8342434;28;20189;-64
2023/09/23 12:28:44;;;;;;;1.13;1.10;;;;;19.60;96392.00;;;;8351544;28;20203;-64
2023/09/23 12:32:54;;;;;;;1.20;1.10;;;;;19.50;96393.00;;;;8349149;28;20201;-65
2023/09/23 12:37:00;;;;;;;3.88;1.13;;;;;19.50;96404.00;;;;8346388;28;20229;-65
2023/09/23 12:41:03;;;;;;;1.15;1.15;;;;;19.50;96399.00;;;;8348839;28;20696;-64
2023/09/23 12:45:09;;;;;;;3.80;1.77;;;;;19.50;96396.00;;;;8350125;28;20200;-65
2023/09/23 12:49:12;;;;;;;1.52;1.13;;;;;19.60;96403.00;;;;8349423;28;20225;-65
2023/09/23 12:53:17;;;;;;;1.35;1.08;;;;;19.80;96404.00;;;;8346762;28;20208;-64
2023/09/23 12:57:20;;;;;;;1.30;1.20;;;;;20.10;96411.00;;;;8349613;28;20323;-65
2023/09/23 13:01:24;;;;;;;1.42;1.30;;;;;20.40;96403.00;;;;8348027;28;20603;-65
2023/09/23 13:05:28;;;;;;;2.67;1.30;;;;;20.40;96398.00;;;;8346109;28;20204;-65
2023/09/23 13:09:33;;;;;;;1.52;1.23;;;;;20.20;96407.00;;;;8343782;28;20284;-65
2023/09/23 13:13:41;;;;;;;2.72;1.10;;;;;19.80;96406.00;;;;8343686;28;20200;-65
2023/09/23 13:17:52;;;;;;;2.30;1.40;;;;;19.60;96408.00;;;;8342585;28;20228;-64
2023/09/23 13:21:56;;;;;;;3.25;1.30;;;;;19.50;96412.00;;;;8344479;28;20211;-64
2023/09/23 13:26:00;;;;;;;1.38;1.27;;;;;19.20;96420.00;;;;8343921;28;20236;-64
2023/09/23 13:30:08;;;;;;;2.78;1.42;;;;;19.10;96421.00;;;;8342722;28;20200;-65
2023/09/23 13:34:11;;;;;;;2.35;1.50;;;;;19.00;96413.00;;;;8344207;28;20201;-65
2023/09/23 13:38:16;;;;;;;2.35;1.45;;;;;19.00;96415.00;;;;8344203;28;20236;-64
2023/09/23 13:42:20;;;;;;;3.80;1.42;;;;;19.10;96427.00;;;;8337415;28;20199;-64
2023/09/23 13:46:24;;;;;;;2.53;1.10;;;;;19.30;96431.00;;;;8340623;28;20208;-64
2023/09/23 13:50:28;;;;;;;3.22;1.50;;;;;19.80;96432.00;;;;8341828;28;20715;-64
2023/09/23 13:54:33;;;;;;;2.55;1.20;;;;;20.30;96439.00;;;;8342606;28;20195;-64
2023/09/23 13:58:52;;;;;;;1.48;1.30;;;;;20.50;96433.00;;;;8342766;28;20677;-64
2023/09/23 14:02:57;;;;;;;2.10;1.55;;;;;20.40;96437.00;;;;8340321;28;20732;-64
2023/09/23 14:07:03;;;;;;;2.60;1.45;;;;;20.10;96442.00;;;;8344155;28;20685;-64
2023/09/23 14:11:07;;;;;;;5.25;1.30;;;;;19.90;96444.00;;;;8342183;28;20239;-65
2023/09/23 14:15:13;;;;;;;1.73;1.30;;;;;19.70;96444.00;;;;8341783;28;20200;-64
2023/09/23 14:19:22;;;;;;;6.43;1.65;;;;;19.70;96457.00;;;;8335349;28;20228;-64
2023/09/23 14:23:25;;;;;;;1.35;1.25;;;;;19.80;96454.00;;;;8337283;28;20197;-65
2023/09/23 14:27:32;;;;;;;3.50;1.42;;;;;20.10;96453.00;;;;8345126;28;20212;-64
2023/09/23 14:31:37;;;;;;;4.28;1.30;;;;;20.10;96439.00;;;;8340484;28;20292;-64
2023/09/23 14:35:40;;;;;;;2.28;1.20;;;;;20.10;96469.00;;;;8341353;28;20213;-64
2023/09/23 14:39:47;;;;;;;2.13;1.23;;;;;20.10;96484.00;;;;8341548;28;20228;-64
2023/09/23 14:43:50;;;;;;;1.95;1.10;;;;;20.00;96487.00;;;;8338758;28;20952;-64
2023/09/23 14:47:54;;;;;;;3.28;1.33;;;;;19.90;96496.00;;;;8340853;28;20228;-64
2023/09/23 14:51:58;;;;;;;2.17;1.33;;;;;19.90;96491.00;;;;8337753;28;20197;-64
2023/09/23 14:56:01;;;;;;;2.65;1.30;;;;;19.90;96504.00;;;;8342364;28;20211;-65
2023/09/23 15:00:05;;;;;;;3.13;1.35;;;;;19.80;96509.00;;;;8346674;28;20740;-64
2023/09/23 15:04:12;;;;;;;1.10;1.10;;;;;19.70;96514.00;;;;8340834;28;20236;-64
2023/09/23 15:08:15;;;;;;;2.00;1.23;;;;;19.60;96519.00;;;;8340493;28;20201;-64
2023/09/23 15:12:19;;;;;;;2.25;1.25;;;;;19.50;96527.00;;;;8345667;28;20204;-64
2023/09/23 15:16:23;;;;;;;1.35;1.20;;;;;19.50;96524.00;;;;8345579;28;20893;-64
2023/09/23 15:20:27;;;;;;;2.78;1.60;;;;;19.50;96534.00;;;;8343660;28;20308;-65
2023/09/23 15:24:33;;;;;;;3.03;1.50;;;;;19.50;96527.00;;;;8343668;28;20251;-64
2023/09/23 15:28:40;;;;;;;1.58;1.17;;;;;19.50;96529.00;;;;8346229;28;20708;-65
2023/09/23 15:32:44;;;;;;;3.55;1.30;;;;;19.50;96537.00;;;;8336154;28;20566;-65
2023/09/23 15:36:54;;;;;;;1.42;1.33;;;;;19.50;96542.00;;;;8341004;28;20543;-65
2023/09/23 15:40:58;;;;;;;2.47;1.55;;;;;19.50;96553.00;;;;8347264;28;20761;-65
2023/09/23 15:45:01;;;;;;;1.77;1.20;;;;;19.30;96550.00;;;;8347959;28;20207;-65
2023/09/23 15:49:05;;;;;;;2.92;1.33;;;;;19.10;96553.00;;;;8349069;28;20649;-65
2023/09/23 15:53:10;;;;;;;2.65;1.52;;;;;19.20;96543.00;;;;8352875;28;20197;-65
2023/09/23 15:57:15;;;;;;;2.05;1.38;;;;;19.50;96559.00;;;;8348219;28;20255;-65
2023/09/23 16:01:20;;;;;;;2.25;1.25;;;;;19.70;96558.00;;;;8344616;28;20341;-65
2023/09/23 16:05:26;;;;;;;4.95;1.80;;;;;19.70;96563.00;;;;8343406;28;20204;-65
2023/09/23 16:09:33;;;;;;;2.83;1.30;;;;;19.40;96560.00;;;;8347134;28;20239;-65
2023/09/23 16:13:40;;;;;;;1.55;1.38;;;;;19.20;96560.00;;;;8351028;28;20622;-65
2023/09/23 16:17:44;;;;;;;1.17;1.08;;;;;18.90;96562.00;;;;8349133;28;20228;-65
2023/09/23 16:21:48;;;;;;;2.30;1.27;;;;;18.40;96561.00;;;;8350682;28;20204;-65
2023/09/23 16:25:53;;;;;;;2.88;1.60;;;;;18.10;96568.00;;;;8350364;28;20197;-65
2023/09/23 16:29:58;;;;;;;1.75;1.30;;;;;17.80;96562.00;;;;8350407;28;20288;-66
2023/09/23 16:34:05;;;;;;;3.28;1.45;;;;;17.60;96561.00;;;;8348605;28;20234;-66
2023/09/23 16:38:10;;;;;;;2.15;1.40;;;;;17.40;96566.00;;;;8345585;28;20315;-66
2023/09/23 16:42:20;;;;;;;1.55;1.40;;;;;17.20;96571.00;;;;8342492;28;20970;-65
2023/09/23 16:46:23;;;;;;;2.83;1.45;;;;;17.00;96568.00;;;;8341055;28;20251;-65
2023/09/23 16:50:29;;;;;;;1.88;1.10;;;;;16.70;96580.00;;;;8343636;28;20547;-66
2023/09/23 16:54:32;;;;;;;2.75;1.50;;;;;16.40;96584.00;;;;8345435;28;20201;-65
2023/09/23 16:58:37;;;;;;;1.60;1.50;;;;;16.10;96593.00;;;;8347783;28;20324;-65
2023/09/23 17:02:40;;;;;;;3.80;1.60;;;;;15.70;96598.00;;;;8326404;28;20239;-65
2023/09/23 17:06:53;;;;;;;5.30;1.60;;;;;15.30;96596.00;;;;8344937;28;20200;-65
2023/09/23 17:10:59;;;;;;;4.57;2.15;;;;;14.90;96598.00;;;;8341215;28;20197;-65
2023/09/23 17:15:05;;;;;;;10.45;1.83;;;;;14.60;96607.00;;;;8342158;28;20523;-66
2023/09/23 17:19:09;;;;;;;4.90;1.58;;;;;14.30;96606.00;;;;8344002;28;20315;-64
2023/09/23 17:23:14;;;;;;;4.03;1.88;;;;;14.00;96614.00;;;;8346777;28;20818;-64
2023/09/23 17:27:18;;;;;;;4.35;1.80;;;;;13.70;96636.00;;;;8345396;28;20924;-64
2023/09/23 17:31:26;;;;;;;5.35;1.70;;;;;13.50;96630.00;;;;8345265;28;20200;-65
2023/09/23 17:35:29;;;;;;;2.60;1.70;;;;;13.40;96642.00;;;;8347947;28;20204;-66
2023/09/23 17:39:33;;;;;;;2.92;1.60;;;;;13.20;96647.00;;;;8340026;28;20826;-66
2023/09/23 17:43:37;;;;;;;2.47;1.58;;;;;13.00;96651.00;;;;8341133;28;20228;-66
2023/09/23 17:47:44;;;;;;;4.80;1.88;;;;;12.80;96663.00;;;;8343171;28;20235;-65
2023/09/23 17:51:51;;;;;;;4.07;1.90;;;;;12.60;96673.00;;;;8345616;28;20201;-65
2023/09/23 17:55:57;;;;;;;3.85;2.08;;;;;12.50;96679.00;;;;8341507;28;20219;-66
2023/09/23 18:00:04;;;;;;;2.65;2.10;;;;;12.40;96689.00;;;;8340137;28;20673;-65
2023/09/23 18:04:15;;;;;;;2.25;1.98;;;;;12.30;96697.00;;;;8340520;28;20235;-66
2023/09/23 18:08:22;;;;;;;4.75;2.20;;;;;12.20;96706.00;;;;8340677;28;20200;-65
2023/09/23 18:12:25;;;;;;;2.83;2.10;;;;;12.10;96718.00;;;;8342171;28;20261;-66
2023/09/23 18:16:28;;;;;;;5.40;2.30;;;;;11.90;96727.00;;;;8343027;28;20206;-65
2023/09/23 18:20:36;;;;;;;8.95;2.28;;;;;11.80;96733.00;;;;8345129;28;20232;-66
2023/09/23 18:24:39;;;;;;;2.78;2.22;;;;;11.80;96739.00;;;;8342939;28;20197;-65
2023/09/23 18:28:49;;;;;;;4.60;2.38;;;;;11.70;96755.00;;;;8346263;28;20313;-66
2023/09/23 18:32:55;;;;;;;3.67;2.28;;;;;11.60;96751.00;;;;8340076;28;20219;-65
2023/09/23 18:37:00;;;;;;;8.32;3.20;;;;;11.60;96759.00;;;;8341442;28;20775;-65
2023/09/23 18:41:06;;;;;;;4.57;2.50;;;;;11.50;96770.00;;;;8341117;28;20243;-65
2023/09/23 18:45:14;;;;;;;3.10;2.38;;;;;11.60;96776.00;;;;8339111;28;20205;-66
2023/09/23 18:49:18;;;;;;;5.40;3.22;;;;;11.50;96793.00;;;;8342383;28;20207;-66
2023/09/23 18:53:24;;;;;;;7.28;3.97;;;;;11.50;96796.00;;;;8341184;28;20223;-66
2023/09/23 18:57:29;;;;;;;7.75;3.50;;;;;11.50;96795.00;;;;8342749;28;20204;-66
2023/09/23 19:01:33;;;;;;;3.97;3.00;;;;;11.50;96793.00;;;;8338504;28;20274;-67
2023/09/23 19:05:37;;;;;;;4.35;3.65;;;;;11.50;96790.00;;;;8323091;28;20222;-66
2023/09/23 19:09:42;;;;;;;3.35;2.90;;;;;11.50;96807.00;;;;8339794;28;20254;-66
2023/09/23 19:13:45;;;;;;;10.85;4.05;;;;;11.60;96798.00;;;;8339126;28;20345;-66
2023/09/23 19:17:49;;;;;;;5.85;3.13;;;;;11.70;96803.00;;;;8340758;28;20590;-66
2023/09/23 19:21:53;;;;;;;4.95;3.17;;;;;11.70;96794.00;;;;8339615;28;20309;-65
2023/09/23 19:26:00;;;;;;;6.45;3.17;;;;;11.70;96802.00;;;;8340191;28;20201;-65
2023/09/23 19:30:05;;;;;;;4.07;3.10;;;;;11.70;96801.00;;;;8339893;28;20289;-66
2023/09/23 19:34:12;;;;;;;5.07;3.10;;;;;11.70;96809.00;;;;8335465;28;20843;-65
2023/09/23 19:38:18;;;;;;;6.18;3.85;;;;;11.70;96813.00;;;;8338015;28;20246;-65
2023/09/23 19:42:25;;;;;;;6.40;3.55;;;;;11.70;96817.00;;;;8340832;28;20231;-65
2023/09/23 19:46:30;;;;;;;5.10;3.40;;;;;11.70;96819.00;;;;8339944;28;20197;-65
2023/09/23 19:50:35;;;;;;;4.13;3.28;;;;;11.70;96820.00;;;;8342899;28;20193;-65
2023/09/23 19:54:40;;;;;;;8.80;4.10;;;;;11.70;96830.00;;;;8340207;28;20666;-66
2023/09/23 19:58:47;;;;;;;6.80;3.63;;;;;11.70;96837.00;;;;8345274;28;20206;-66
2023/09/23 20:02:55;;;;;;;4.93;3.65;;;;;11.70;96840.00;;;;8341601;28;20242;-66
2023/09/23 20:06:59;;;;;;;6.32;4.00;;;;;11.70;96838.00;;;;8341133;28;20200;-66
2023/09/23 20:11:04;;;;;;;5.28;3.30;;;;;11.70;96847.00;;;;8345429;28;20208;-65
2023/09/23 20:15:11;;;;;;;5.57;3.20;;;;;11.60;96851.00;;;;8341698;28;20200;-65
2023/09/23 20:19:14;;;;;;;6.47;3.78;;;;;11.60;96849.00;;;;8342347;28;20287;-66
2023/09/23 20:23:21;;;;;;;6.90;3.40;;;;;11.50;96846.00;;;;8341781;28;20204;-66
2023/09/23 20:27:30;;;;;;;6.68;3.92;;;;;11.50;96848.00;;;;8347463;28;20569;-65